createdAt,value
2019-05-13T00:01:00.109Z,36.83
2019-05-13T00:03:33.364Z,36.46
2019-05-13T00:06:08.547Z,36.34
2019-05-13T00:08:44.004Z,36.96
2019-05-13T00:11:17.600Z,36.60
2019-05-13T00:13:50.069Z,36.37
2019-05-13T00:16:23.466Z,36.71
2019-05-13T00:18:54.899Z,37.17
2019-05-13T00:21:33.699Z,35.85
2019-05-13T00:24:05.789Z,36.50
2019-05-13T00:26:44.451Z,36.73
2019-05-13T00:29:18.748Z,36.33
2019-05-13T00:32:10.619Z,37.04
2019-05-13T00:34:46.526Z,36.78
2019-05-13T00:37:24.449Z,36.80
2019-05-13T00:40:03.998Z,37.29
2019-05-13T00:42:43.827Z,37.16
2019-05-13T00:45:14.667Z,37.09
2019-05-13T00:47:53.730Z,37.13
2019-05-13T00:50:25.914Z,38.00
2019-05-13T00:52:58.754Z,37.63
2019-05-13T00:55:37.582Z,37.67
2019-05-13T00:58:14.026Z,37.48
2019-05-13T01:00:46.552Z,38.24
2019-05-13T01:03:20.895Z,37.50
2019-05-13T01:05:53.510Z,38.05
2019-05-13T01:08:36.669Z,38.06
2019-05-13T01:11:13.946Z,37.64
2019-05-13T01:13:46.529Z,37.93
2019-05-13T01:16:19.104Z,38.01
2019-05-13T01:18:53.680Z,37.96
2019-05-13T01:21:25.256Z,38.00
2019-05-13T01:24:05.377Z,37.95
2019-05-13T01:26:40.180Z,37.91
2019-05-13T01:29:14.144Z,37.74
2019-05-13T01:31:46.995Z,38.01
2019-05-13T01:34:23.545Z,38.29
2019-05-13T01:36:59.003Z,38.27
2019-05-13T01:39:37.305Z,38.46
2019-05-13T01:42:11.062Z,38.30
2019-05-13T01:44:45.289Z,38.77
2019-05-13T01:47:18.489Z,38.92
2019-05-13T01:49:50.260Z,39.08
2019-05-13T01:52:21.070Z,39.02
2019-05-13T01:54:54.420Z,39.59
2019-05-13T01:57:27.605Z,39.34
2019-05-13T02:00:04.674Z,38.59
2019-05-13T02:02:39.044Z,38.89
2019-05-13T02:05:10.007Z,39.16
2019-05-13T02:07:54.543Z,38.99
2019-05-13T02:10:24.507Z,39.01
2019-05-13T02:13:00.551Z,39.17
2019-05-13T02:15:36.220Z,39.25
2019-05-13T02:18:09.643Z,39.58
2019-05-13T02:20:44.986Z,39.46
2019-05-13T02:23:15.662Z,39.75
2019-05-13T02:25:46.128Z,39.30
2019-05-13T02:28:17.938Z,39.42
2019-05-13T02:30:50.749Z,39.24
2019-05-13T02:33:26.555Z,39.64
2019-05-13T02:35:58.195Z,39.59
2019-05-13T02:38:31.830Z,39.75
2019-05-13T02:41:02.880Z,39.95
2019-05-13T02:43:41.391Z,40.06
2019-05-13T02:46:12.942Z,40.63
2019-05-13T02:48:47.981Z,40.45
2019-05-13T02:51:32.851Z,40.46
2019-05-13T02:54:12.826Z,40.38
2019-05-13T02:56:45.638Z,40.73
2019-05-13T02:59:16.607Z,40.52
2019-05-13T03:01:53.290Z,40.44
2019-05-13T03:04:32.882Z,40.45
2019-05-13T03:07:07.605Z,40.52
2019-05-13T03:09:42.074Z,40.75
2019-05-13T03:12:15.659Z,41.02
2019-05-13T03:14:48.605Z,41.19
2019-05-13T03:17:32.426Z,40.78
2019-05-13T03:20:04.187Z,41.13
2019-05-13T03:22:36.491Z,40.93
2019-05-13T03:25:06.778Z,41.19
2019-05-13T03:27:37.041Z,41.11
2019-05-13T03:30:16.725Z,41.14
2019-05-13T03:32:55.256Z,41.55
2019-05-13T03:35:26.810Z,41.83
2019-05-13T03:37:57.254Z,41.43
2019-05-13T03:40:33.077Z,41.81
2019-05-13T03:43:12.838Z,41.77
2019-05-13T03:45:46.012Z,42.24
2019-05-13T03:48:24.004Z,42.14
2019-05-13T03:50:56.204Z,42.39
2019-05-13T03:53:42.941Z,41.82
2019-05-13T03:56:13.112Z,42.30
2019-05-13T03:58:56.054Z,42.16
2019-05-13T04:01:32.574Z,41.93
2019-05-13T04:04:04.240Z,42.09
2019-05-13T04:06:37.538Z,41.80
2019-05-13T04:09:22.285Z,42.48
2019-05-13T04:11:52.631Z,42.10
2019-05-13T04:14:23.345Z,42.19
2019-05-13T04:16:58.065Z,42.40
2019-05-13T04:19:28.933Z,42.55
2019-05-13T04:22:02.416Z,42.86
2019-05-13T04:24:34.058Z,42.20
2019-05-13T04:27:14.703Z,42.03
2019-05-13T04:29:53.729Z,41.83
2019-05-13T04:32:33.176Z,41.63
2019-05-13T04:35:05.770Z,41.49
2019-05-13T04:37:43.007Z,41.44
2019-05-13T04:40:15.391Z,41.32
2019-05-13T04:42:47.557Z,41.52
2019-05-13T04:45:18.758Z,41.24
2019-05-13T04:47:52.915Z,41.07
2019-05-13T04:50:26.833Z,40.76
2019-05-13T04:52:58.284Z,40.63
2019-05-13T04:55:42.738Z,40.74
2019-05-13T04:58:16.811Z,41.02
2019-05-13T05:01:23.660Z,40.75
2019-05-13T05:04:27.427Z,40.87
2019-05-13T05:07:22.187Z,41.50
2019-05-13T05:10:25.889Z,40.68
2019-05-13T05:13:25.147Z,40.40
2019-05-13T05:16:21.988Z,40.60
2019-05-13T05:19:26.910Z,40.93
2019-05-13T05:22:35.619Z,40.35
2019-05-13T05:25:22.133Z,41.04
2019-05-13T05:28:34.438Z,40.60
2019-05-13T05:31:44.592Z,40.61
2019-05-13T05:34:48.823Z,40.29
2019-05-13T05:37:32.869Z,41.23
2019-05-13T05:40:12.328Z,40.94
2019-05-13T05:42:51.671Z,39.86
2019-05-13T05:45:23.789Z,39.36
2019-05-13T05:47:56.841Z,40.16
2019-05-13T05:50:31.921Z,39.93
2019-05-13T05:53:05.521Z,39.69
2019-05-13T05:55:41.670Z,39.67
2019-05-13T05:58:17.018Z,39.03
2019-05-13T06:00:54.473Z,38.46
2019-05-13T06:03:32.773Z,38.95
2019-05-13T06:06:07.563Z,37.83
2019-05-13T06:08:44.016Z,38.42
2019-05-13T06:11:18.962Z,38.32
2019-05-13T06:13:54.733Z,38.19
2019-05-13T06:16:32.078Z,39.04
2019-05-13T06:19:05.092Z,38.15
2019-05-13T06:21:37.304Z,37.99
2019-05-13T06:24:08.353Z,37.63
2019-05-13T06:26:47.886Z,38.31
2019-05-13T06:29:22.888Z,37.21
2019-05-13T06:31:56.469Z,37.63
2019-05-13T06:34:27.101Z,37.89
2019-05-13T06:37:01.635Z,37.34
2019-05-13T06:39:32.028Z,37.95
2019-05-13T06:42:07.658Z,37.81
2019-05-13T06:45:02.290Z,38.58
2019-05-13T06:47:36.241Z,39.04
2019-05-13T06:50:11.683Z,38.04
2019-05-13T06:52:45.082Z,38.52
2019-05-13T06:55:16.954Z,38.36
2019-05-13T06:57:47.892Z,38.60
2019-05-13T07:00:21.589Z,38.36
2019-05-13T07:02:55.177Z,38.70
2019-05-13T07:05:31.817Z,37.74
2019-05-13T07:08:07.940Z,38.31
2019-05-13T07:10:42.281Z,38.07
2019-05-13T07:13:17.226Z,38.28
2019-05-13T07:15:52.120Z,38.09
2019-05-13T07:18:25.816Z,38.74
2019-05-13T07:20:57.795Z,38.38
2019-05-13T07:23:42.245Z,39.37
2019-05-13T07:26:22.089Z,39.13
2019-05-13T07:28:53.779Z,37.88
2019-05-13T07:31:32.219Z,37.72
2019-05-13T07:34:08.149Z,37.49
2019-05-13T07:36:42.319Z,37.68
2019-05-13T07:39:18.860Z,38.17
2019-05-13T07:41:51.880Z,37.24
2019-05-13T07:44:32.381Z,38.06
2019-05-13T07:47:07.495Z,37.41
2019-05-13T07:49:38.368Z,36.67
2019-05-13T07:52:15.780Z,36.44
2019-05-13T07:55:01.704Z,36.42
2019-05-13T07:57:34.238Z,35.75
2019-05-13T08:00:08.785Z,35.68
2019-05-13T08:02:47.969Z,35.02
2019-05-13T08:05:19.331Z,35.10
2019-05-13T08:07:51.513Z,34.66
2019-05-13T08:10:24.237Z,35.12
2019-05-13T08:12:58.491Z,34.46
2019-05-13T08:15:33.449Z,34.27
2019-05-13T08:18:07.999Z,34.06
2019-05-13T08:20:41.991Z,34.31
2019-05-13T08:23:16.997Z,33.96
2019-05-13T08:25:51.897Z,34.06
2019-05-13T08:28:25.865Z,33.12
2019-05-13T08:30:57.149Z,32.51
2019-05-13T08:33:42.446Z,33.42
2019-05-13T08:36:16.870Z,33.06
2019-05-13T08:39:30.141Z,32.22
2019-05-13T08:42:11.703Z,32.37
2019-05-13T08:44:36.554Z,32.48
2019-05-13T08:47:12.021Z,30.57
2019-05-13T08:49:44.822Z,31.04
2019-05-13T08:52:16.499Z,30.36
2019-05-13T08:54:52.498Z,30.51
2019-05-13T08:57:23.742Z,30.16
2019-05-13T08:59:53.952Z,30.57
2019-05-13T09:02:28.518Z,30.27
2019-05-13T09:05:02.837Z,29.97
2019-05-13T09:07:41.444Z,28.42
2019-05-13T09:10:15.075Z,28.44
2019-05-13T09:13:33.411Z,28.68
2019-05-13T09:16:07.292Z,26.80
2019-05-13T09:18:43.073Z,27.06
2019-05-13T09:26:52.744Z,26.63
2019-05-13T09:29:32.179Z,25.51
2019-05-13T09:32:06.087Z,24.26
2019-05-13T09:34:37.648Z,24.26
2019-05-13T09:37:12.907Z,23.85
2019-05-13T09:39:45.678Z,24.87
2019-05-13T09:42:18.902Z,25.06
2019-05-13T09:45:02.215Z,24.56
2019-05-13T09:47:33.464Z,23.61
2019-05-13T09:50:06.041Z,22.77
2019-05-13T09:52:39.662Z,22.12
2019-05-13T09:55:25.303Z,22.40
2019-05-13T09:57:47.688Z,22.54
2019-05-13T10:00:23.680Z,21.17
2019-05-13T10:02:55.039Z,20.87
2019-05-13T10:05:28.329Z,21.06
2019-05-13T10:08:05.137Z,21.64
2019-05-13T10:10:38.537Z,22.09
2019-05-13T10:16:04.993Z,20.97
2019-05-13T10:18:43.404Z,20.09
2019-05-13T10:21:23.869Z,21.18
2019-05-13T10:24:15.979Z,21.18
2019-05-13T10:26:51.883Z,21.54
2019-05-13T10:29:31.684Z,20.38
2019-05-13T10:32:08.741Z,20.37
2019-05-13T10:34:46.003Z,20.37
2019-05-13T10:37:21.959Z,19.91
2019-05-13T10:40:14.620Z,18.79
2019-05-13T10:42:52.359Z,18.25
2019-05-13T10:45:29.207Z,18.98
2019-05-13T10:48:03.610Z,18.98
2019-05-13T10:50:41.785Z,17.60
2019-05-13T10:53:17.708Z,18.38
2019-05-13T10:55:57.697Z,18.58
2019-05-13T10:58:31.461Z,16.98
2019-05-13T11:01:05.191Z,18.57
2019-05-13T11:03:38.281Z,17.19
2019-05-13T11:06:18.057Z,17.54
2019-05-13T11:08:53.132Z,18.14
2019-05-13T11:11:32.995Z,17.40
2019-05-13T11:14:28.535Z,18.62
2019-05-13T11:17:14.943Z,19.16
2019-05-13T11:19:47.728Z,18.26
2019-05-13T11:22:22.663Z,18.57
2019-05-13T11:24:59.396Z,19.22
2019-05-13T11:27:42.140Z,18.33
2019-05-13T11:30:17.547Z,18.76
2019-05-13T11:32:52.600Z,18.62
2019-05-13T11:35:28.938Z,15.68
2019-05-13T11:38:01.859Z,17.22
2019-05-13T11:40:36.976Z,17.66
2019-05-13T11:43:12.269Z,16.02
2019-05-13T11:45:47.843Z,17.01
2019-05-13T11:48:23.173Z,16.31
2019-05-13T11:50:54.401Z,16.60
2019-05-13T11:53:33.523Z,15.20
2019-05-13T11:56:04.029Z,15.52
2019-05-13T11:58:43.101Z,16.92
2019-05-13T12:01:14.494Z,18.15
2019-05-13T12:03:47.225Z,18.58
2019-05-13T12:06:17.943Z,16.21
2019-05-13T12:08:55.161Z,17.54
2019-05-13T12:11:25.760Z,15.62
2019-05-13T12:14:07.556Z,15.29
2019-05-13T12:16:42.351Z,16.61
2019-05-13T12:19:16.152Z,16.91
2019-05-13T12:21:47.227Z,17.57
2019-05-13T12:24:29.831Z,16.15
2019-05-13T12:27:07.410Z,14.56
2019-05-13T12:29:44.643Z,16.05
2019-05-13T12:32:22.101Z,15.41
2019-05-13T12:34:56.673Z,16.24
2019-05-13T12:37:33.460Z,15.85
2019-05-13T12:40:11.516Z,15.07
2019-05-13T12:42:47.098Z,15.20
2019-05-13T12:45:22.248Z,14.54
2019-05-13T12:47:53.258Z,14.65
2019-05-13T12:50:32.311Z,17.04
2019-05-13T12:53:14.667Z,16.82
2019-05-13T12:55:53.768Z,14.56
2019-05-13T12:58:33.822Z,15.77
2019-05-13T13:01:05.843Z,15.67
2019-05-13T13:03:39.291Z,16.05
2019-05-13T13:06:31.097Z,15.62
2019-05-13T13:08:57.484Z,15.46
2019-05-13T13:11:28.655Z,15.56
2019-05-13T13:14:05.673Z,14.62
2019-05-13T13:16:42.123Z,16.16
2019-05-13T13:19:14.537Z,16.31
2019-05-13T13:24:24.748Z,15.32
2019-05-13T13:27:01.176Z,13.63
2019-05-13T13:29:43.322Z,14.25
2019-05-13T13:32:17.664Z,14.92
2019-05-13T13:34:53.541Z,13.93
2019-05-13T13:37:22.544Z,14.64
2019-05-13T13:39:58.773Z,13.70
2019-05-13T13:42:34.436Z,15.51
2019-05-13T13:45:10.567Z,15.45
2019-05-13T13:47:45.353Z,13.11
2019-05-13T13:50:33.527Z,12.58
2019-05-13T13:53:04.931Z,13.14
2019-05-13T13:55:38.007Z,13.02
2019-05-13T13:58:14.129Z,12.32
2019-05-13T14:01:01.828Z,12.38
2019-05-13T14:03:28.064Z,12.35
2019-05-13T14:06:06.175Z,12.02
2019-05-13T14:06:25.160Z,26.16
2019-05-13T14:06:52.391Z,13.66
2019-05-13T14:08:43.455Z,11.38
2019-05-13T14:11:23.209Z,10.98
2019-05-13T14:13:56.439Z,9.59
2019-05-13T14:16:36.101Z,10.18
2019-05-13T14:19:10.761Z,9.53
2019-05-13T14:21:42.141Z,9.25
2019-05-13T14:24:18.277Z,9.07
2019-05-13T14:26:53.185Z,8.19
2019-05-13T14:29:38.595Z,8.13
2019-05-13T14:32:08.761Z,7.42
2019-05-13T14:34:46.037Z,6.32
2019-05-13T14:37:22.316Z,6.02
2019-05-13T14:39:55.555Z,5.60
2019-05-13T14:42:32.041Z,5.52
2019-05-13T14:45:03.573Z,4.79
2019-05-13T14:47:38.203Z,5.11
2019-05-13T14:50:31.765Z,5.06
2019-05-13T14:53:05.372Z,4.16
2019-05-13T14:55:42.092Z,4.62
2019-05-13T14:58:14.429Z,4.17
2019-05-13T15:01:10.280Z,4.05
2019-05-13T15:03:26.794Z,4.03
2019-05-13T15:05:58.545Z,3.98
2019-05-13T15:08:33.541Z,3.87
2019-05-13T15:11:17.903Z,3.43
2019-05-13T15:13:51.799Z,3.88
2019-05-13T15:16:25.443Z,3.65
2019-05-13T15:19:07.707Z,4.46
2019-05-13T15:21:45.598Z,4.18
2019-05-13T15:24:24.427Z,4.75
2019-05-13T15:27:23.017Z,5.94
2019-05-13T15:30:16.805Z,7.61
2019-05-13T15:32:42.010Z,8.62
2019-05-13T15:35:20.709Z,9.57
2019-05-13T15:37:53.459Z,10.16
2019-05-13T15:40:25.485Z,10.52
2019-05-13T15:42:59.606Z,11.40
2019-05-13T15:45:31.974Z,12.34
2019-05-13T15:48:04.273Z,12.51
2019-05-13T15:50:36.584Z,13.39
2019-05-13T15:53:14.059Z,13.39
2019-05-13T15:55:46.122Z,14.14
2019-05-13T15:58:37.708Z,16.74
2019-05-13T16:01:02.584Z,15.86
2019-05-13T16:03:35.913Z,15.43
2019-05-13T16:06:10.623Z,16.19
2019-05-13T16:08:46.253Z,16.28
2019-05-13T16:11:21.987Z,17.23
2019-05-13T16:13:52.437Z,17.79
2019-05-13T16:16:24.209Z,17.15
2019-05-13T16:18:55.386Z,17.49
2019-05-13T16:21:28.549Z,19.21
2019-05-13T16:24:17.526Z,18.37
2019-05-13T16:26:53.898Z,17.04
2019-05-13T16:29:28.844Z,18.09
2019-05-13T16:32:04.100Z,17.92
2019-05-13T16:34:48.312Z,17.40
2019-05-13T16:37:22.018Z,19.24
2019-05-13T16:39:54.355Z,18.12
2019-05-13T16:42:42.046Z,17.54
2019-05-13T16:45:16.713Z,19.71
2019-05-13T16:47:57.228Z,18.13
2019-05-13T16:50:23.136Z,18.84
2019-05-13T16:53:01.703Z,18.34
2019-05-13T16:55:36.736Z,19.71
2019-05-13T16:58:07.932Z,18.83
2019-05-13T17:00:42.426Z,18.91
2019-05-13T17:03:15.672Z,19.31
2019-05-13T17:05:47.006Z,19.14
2019-05-13T17:08:18.084Z,19.91
2019-05-13T17:10:55.440Z,18.71
2019-05-13T17:13:31.532Z,19.15
2019-05-13T17:16:07.053Z,18.90
2019-05-13T17:18:51.905Z,18.98
2019-05-13T17:21:22.728Z,19.20
2019-05-13T17:23:57.978Z,18.40
2019-05-13T17:26:33.618Z,18.40
2019-05-13T17:29:11.349Z,19.73
2019-05-13T17:32:18.202Z,19.25
2019-05-13T17:34:51.572Z,18.44
2019-05-13T17:37:25.423Z,19.58
2019-05-13T17:40:05.540Z,19.56
2019-05-13T17:42:41.468Z,19.56
2019-05-13T17:45:18.053Z,19.84
2019-05-13T17:47:51.997Z,19.84
2019-05-13T17:50:22.980Z,18.31
2019-05-13T17:52:54.033Z,18.82
2019-05-13T17:55:27.807Z,19.10
2019-05-13T17:58:01.442Z,19.25
2019-05-13T18:00:36.056Z,19.25
2019-05-13T18:03:08.088Z,19.05
2019-05-13T18:05:41.945Z,18.82
2019-05-13T18:08:13.016Z,19.63
2019-05-13T18:10:45.445Z,19.03
2019-05-13T18:13:17.016Z,18.97
2019-05-13T18:15:51.353Z,20.10
2019-05-13T18:18:38.957Z,19.67
2019-05-13T18:21:01.545Z,19.27
2019-05-13T18:23:33.016Z,19.27
2019-05-13T18:26:05.457Z,19.89
2019-05-13T18:28:42.193Z,19.89
2019-05-13T18:31:14.067Z,18.31
2019-05-13T18:33:46.137Z,18.73
2019-05-13T18:36:17.678Z,19.50
2019-05-13T18:38:52.298Z,19.62
2019-05-13T18:41:25.981Z,19.20
2019-05-13T18:44:02.257Z,19.59
2019-05-13T18:46:41.453Z,19.71
2019-05-13T18:49:15.648Z,20.45
2019-05-13T18:51:51.409Z,20.10
2019-05-13T18:54:24.526Z,19.06
2019-05-13T18:56:57.396Z,20.23
2019-05-13T18:59:43.796Z,20.42
2019-05-13T19:02:21.415Z,21.49
2019-05-13T19:05:01.495Z,19.81
2019-05-13T19:07:35.620Z,19.99
2019-05-13T19:10:11.527Z,20.56
2019-05-13T19:12:46.186Z,19.40
2019-05-13T19:15:24.030Z,21.02
2019-05-13T19:17:59.116Z,20.82
2019-05-13T19:20:33.796Z,21.76
2019-05-13T19:23:08.433Z,21.53
2019-05-13T19:25:43.647Z,21.62
2019-05-13T19:28:19.501Z,21.07
2019-05-13T19:30:53.383Z,21.07
2019-05-13T19:33:24.000Z,20.97
2019-05-13T19:35:55.596Z,21.25
2019-05-13T19:38:31.692Z,22.00
2019-05-13T19:41:04.033Z,21.91
2019-05-13T19:43:36.943Z,22.20
2019-05-13T19:46:12.008Z,22.49
2019-05-13T19:48:46.197Z,22.04
2019-05-13T19:51:34.671Z,22.32
2019-05-13T19:54:12.722Z,22.52
2019-05-13T19:56:48.498Z,22.41
2019-05-13T19:59:21.634Z,22.99
2019-05-13T20:01:54.682Z,22.51
2019-05-13T20:04:35.007Z,21.44
2019-05-13T20:07:05.673Z,21.66
2019-05-13T20:09:37.546Z,22.44
2019-05-13T20:12:15.751Z,22.19
2019-05-13T20:14:51.771Z,23.37
2019-05-13T20:17:36.332Z,23.35
2019-05-13T20:20:08.071Z,23.00
2019-05-13T20:22:45.511Z,23.55
2019-05-13T20:25:38.600Z,24.01
2019-05-13T20:28:35.844Z,23.26
2019-05-13T20:31:11.263Z,23.95
2019-05-13T20:33:46.247Z,23.46
2019-05-13T20:36:19.084Z,25.10
2019-05-13T20:38:52.458Z,25.13
2019-05-13T20:41:25.267Z,24.72
2019-05-13T20:44:09.709Z,24.19
2019-05-13T20:46:43.096Z,25.77
2019-05-13T20:49:21.921Z,25.26
2019-05-13T20:51:55.399Z,26.19
2019-05-13T20:54:31.429Z,25.40
2019-05-13T20:57:08.680Z,25.65
2019-05-13T20:59:41.626Z,25.42
2019-05-13T21:02:22.116Z,24.75
2019-05-13T21:05:01.313Z,25.17
2019-05-13T21:07:38.645Z,25.19
2019-05-13T21:10:31.387Z,25.37
2019-05-13T21:13:05.109Z,25.86
2019-05-13T21:18:45.918Z,25.01
2019-05-13T21:21:22.182Z,25.22
2019-05-13T21:24:01.533Z,25.32
2019-05-13T21:26:38.254Z,26.23
2019-05-13T21:29:21.654Z,25.92
2019-05-13T21:31:58.631Z,25.94
2019-05-13T21:34:32.263Z,26.04
2019-05-13T21:37:11.359Z,26.13
2019-05-13T21:39:44.439Z,25.73
2019-05-13T21:42:36.426Z,26.25
2019-05-13T21:45:23.426Z,25.99
2019-05-13T21:47:55.460Z,26.44
2019-05-13T21:50:37.120Z,27.05
2019-05-13T21:53:07.620Z,27.07
2019-05-13T21:55:41.735Z,26.43
2019-05-13T21:58:22.403Z,26.71
2019-05-13T22:01:04.465Z,27.13
2019-05-13T22:03:42.025Z,27.10
2019-05-13T22:06:13.793Z,27.64
2019-05-13T22:08:46.721Z,27.57
2019-05-13T22:11:18.968Z,27.75
2019-05-13T22:13:51.597Z,27.69
2019-05-13T22:16:25.409Z,27.63
2019-05-13T22:18:56.383Z,28.09
2019-05-13T22:21:27.702Z,27.89
2019-05-13T22:24:05.021Z,27.73
2019-05-13T22:26:38.466Z,28.23
2019-05-13T22:29:12.306Z,27.84
2019-05-13T22:31:47.555Z,29.20
2019-05-13T22:34:22.837Z,28.98
2019-05-13T22:37:02.392Z,29.22
2019-05-13T22:39:37.847Z,29.65
2019-05-13T22:42:14.378Z,29.28
2019-05-13T22:44:52.265Z,30.18
2019-05-13T22:47:23.909Z,29.57
2019-05-13T22:49:57.093Z,29.45
2019-05-13T22:52:33.775Z,29.59
2019-05-13T22:55:07.224Z,29.56
2019-05-13T22:57:38.665Z,29.28
2019-05-13T23:00:12.204Z,29.64
2019-05-13T23:02:45.700Z,29.99
2019-05-13T23:05:21.616Z,29.92
2019-05-13T23:07:54.884Z,29.95
2019-05-13T23:10:28.590Z,29.57
2019-05-13T23:13:02.918Z,29.69
2019-05-13T23:15:35.842Z,30.22
2019-05-13T23:18:11.590Z,30.22
2019-05-13T23:20:42.410Z,30.02
2019-05-13T23:23:16.382Z,30.15
2019-05-13T23:25:56.659Z,30.06
2019-05-13T23:28:49.253Z,31.14
2019-05-13T23:31:22.986Z,30.47
2019-05-13T23:33:58.504Z,31.11
2019-05-13T23:36:42.352Z,31.05
2019-05-13T23:39:42.230Z,31.18
2019-05-13T23:42:24.473Z,30.74
2019-05-13T23:45:01.135Z,30.65
2019-05-13T23:47:35.160Z,31.08
2019-05-13T23:50:07.336Z,31.13
2019-05-13T23:52:41.691Z,30.72
2019-05-13T23:55:14.131Z,31.48
2019-05-13T23:57:47.642Z,31.61
